createdAt,value
2018-12-11T00:05:34.096Z,3.20
2018-12-11T00:08:07.646Z,3.20
2018-12-11T00:10:43.445Z,3.20
2018-12-11T00:13:21.224Z,3.20
2018-12-11T00:15:58.310Z,3.20
2018-12-11T00:18:33.196Z,3.10
2018-12-11T00:21:09.142Z,3.10
2018-12-11T00:23:44.518Z,3.10
2018-12-11T00:26:19.180Z,3.10
2018-12-11T00:28:54.532Z,3.10
2018-12-11T00:31:31.036Z,3.10
2018-12-11T00:34:05.452Z,3.10
2018-12-11T00:36:49.398Z,3.00
2018-12-11T00:39:22.376Z,3.00
2018-12-11T00:41:53.950Z,2.90
2018-12-11T00:44:32.130Z,2.90
2018-12-11T00:47:07.675Z,2.90
2018-12-11T00:49:43.938Z,2.80
2018-12-11T00:52:22.372Z,2.80
2018-12-11T00:54:59.471Z,2.80
2018-12-11T00:57:37.274Z,2.90
2018-12-11T01:00:14.324Z,2.90
2018-12-11T01:02:56.828Z,2.90
2018-12-11T01:05:33.844Z,2.90
2018-12-11T01:08:10.020Z,2.90
2018-12-11T01:10:42.992Z,2.90
2018-12-11T01:13:15.104Z,2.80
2018-12-11T01:15:51.964Z,2.80
2018-12-11T01:18:29.985Z,2.80
2018-12-11T01:21:03.858Z,2.80
2018-12-11T01:23:42.491Z,2.80
2018-12-11T01:26:19.410Z,2.80
2018-12-11T01:28:53.064Z,2.80
2018-12-11T01:31:27.484Z,2.70
2018-12-11T01:34:02.872Z,2.80
2018-12-11T01:36:36.669Z,2.80
2018-12-11T01:41:56.325Z,2.80
2018-12-11T01:44:27.623Z,2.90
2018-12-11T01:47:06.456Z,2.90
2018-12-11T01:49:44.566Z,3.00
2018-12-11T01:52:19.980Z,3.00
2018-12-11T01:54:58.711Z,3.00
2018-12-11T01:57:35.698Z,3.00
2018-12-11T02:00:08.956Z,3.00
2018-12-11T02:02:51.793Z,2.90
2018-12-11T02:05:24.924Z,2.90
2018-12-11T02:08:02.257Z,2.90
2018-12-11T02:10:38.708Z,2.90
2018-12-11T02:13:16.222Z,2.80
2018-12-11T02:15:48.810Z,2.80
2018-12-11T02:18:23.020Z,2.70
2018-12-11T02:20:59.524Z,2.80
2018-12-11T02:23:32.746Z,2.80
2018-12-11T02:26:09.249Z,2.80
2018-12-11T02:28:45.188Z,2.80
2018-12-11T02:31:20.358Z,2.80
2018-12-11T02:33:52.633Z,2.80
2018-12-11T02:36:27.932Z,2.80
2018-12-11T02:39:00.582Z,2.70
2018-12-11T02:41:37.501Z,2.80
2018-12-11T02:44:11.970Z,2.80
2018-12-11T02:46:46.073Z,2.80
2018-12-11T02:49:22.488Z,2.80
2018-12-11T02:51:58.069Z,2.80
2018-12-11T02:54:32.172Z,2.80
2018-12-11T02:57:11.847Z,2.80
2018-12-11T02:59:46.969Z,2.80
2018-12-11T03:02:19.203Z,2.90
2018-12-11T03:04:55.133Z,2.90
2018-12-11T03:07:34.264Z,3.00
2018-12-11T03:10:13.415Z,3.00
2018-12-11T03:12:47.645Z,3.00
2018-12-11T03:15:30.378Z,3.10
2018-12-11T03:18:04.351Z,3.10
2018-12-11T03:20:36.915Z,3.20
2018-12-11T03:23:18.303Z,3.30
2018-12-11T03:25:52.188Z,3.50
2018-12-11T03:28:26.011Z,3.50
2018-12-11T03:30:58.932Z,3.50
2018-12-11T03:33:33.665Z,3.40
2018-12-11T03:36:07.532Z,3.40
2018-12-11T03:38:41.093Z,3.40
2018-12-11T03:41:13.513Z,3.30
2018-12-11T03:43:45.287Z,3.30
2018-12-11T03:51:23.445Z,3.20
2018-12-11T03:53:54.437Z,3.30
2018-12-11T03:56:26.761Z,3.30
2018-12-11T03:58:58.518Z,3.30
2018-12-11T04:01:31.491Z,3.40
2018-12-11T04:04:06.793Z,3.40
2018-12-11T04:06:37.232Z,3.50
2018-12-11T04:09:09.976Z,3.40
2018-12-11T04:11:43.220Z,3.40
2018-12-11T04:14:16.563Z,3.50
2018-12-11T04:16:48.551Z,3.50
2018-12-11T04:19:23.043Z,3.60
2018-12-11T04:21:55.587Z,3.70
2018-12-11T04:24:29.995Z,3.70
2018-12-11T04:27:02.454Z,3.70
2018-12-11T04:29:33.847Z,3.70
2018-12-11T04:32:06.845Z,3.60
2018-12-11T04:34:40.252Z,3.60
2018-12-11T04:37:12.173Z,3.60
2018-12-11T04:39:44.295Z,3.70
2018-12-11T04:42:23.612Z,3.70
2018-12-11T04:44:55.028Z,3.70
2018-12-11T04:47:26.907Z,3.70
2018-12-11T04:49:59.351Z,3.70
2018-12-11T04:52:31.517Z,3.70
2018-12-11T04:55:08.693Z,3.60
2018-12-11T04:57:40.593Z,3.60
2018-12-11T05:00:21.699Z,3.60
2018-12-11T05:03:00.412Z,3.60
2018-12-11T05:05:34.055Z,3.60
2018-12-11T05:08:12.186Z,3.70
2018-12-11T05:10:49.087Z,3.70
2018-12-11T05:13:22.390Z,3.70
2018-12-11T05:15:58.957Z,3.70
2018-12-11T05:18:36.265Z,3.70
2018-12-11T05:21:10.307Z,3.80
2018-12-11T05:23:42.813Z,3.80
2018-12-11T05:26:16.533Z,3.80
2018-12-11T05:28:49.069Z,3.80
2018-12-11T05:31:20.932Z,3.70
2018-12-11T05:33:52.341Z,3.70
2018-12-11T05:36:26.361Z,3.70
2018-12-11T05:39:05.007Z,3.70
2018-12-11T05:41:37.175Z,3.70
2018-12-11T05:44:12.827Z,3.70
2018-12-11T05:46:54.975Z,3.60
2018-12-11T05:49:32.931Z,3.70
2018-12-11T05:52:06.683Z,3.70
2018-12-11T05:54:46.986Z,3.70
2018-12-11T05:57:27.265Z,3.70
2018-12-11T06:00:10.288Z,3.80
2018-12-11T06:02:49.613Z,3.80
2018-12-11T06:05:36.602Z,3.90
2018-12-11T06:08:17.720Z,3.90
2018-12-11T06:11:01.090Z,4.00
2018-12-11T06:13:45.423Z,3.90
2018-12-11T06:16:26.732Z,3.90
2018-12-11T06:19:06.010Z,3.80
2018-12-11T06:21:45.452Z,3.60
2018-12-11T06:24:25.142Z,3.50
2018-12-11T06:27:09.524Z,3.40
2018-12-11T06:29:53.829Z,3.40
2018-12-11T06:32:39.976Z,3.30
2018-12-11T06:35:22.086Z,3.30
2018-12-11T06:38:05.757Z,3.20
2018-12-11T06:40:48.003Z,3.30
2018-12-11T06:46:40.019Z,3.20
2018-12-11T06:49:24.928Z,3.20
2018-12-11T06:55:08.377Z,3.20
2018-12-11T07:00:58.164Z,3.30
2018-12-11T07:03:39.951Z,3.20
2018-12-11T07:06:26.068Z,3.20
2018-12-11T07:09:16.599Z,3.10
2018-12-11T07:12:04.364Z,3.10
2018-12-11T07:14:54.218Z,3.00
2018-12-11T07:17:36.736Z,3.00
2018-12-11T07:20:24.949Z,2.90
2018-12-11T07:23:11.988Z,2.90
2018-12-11T07:26:03.641Z,2.90
2018-12-11T07:28:52.280Z,2.90
2018-12-11T07:31:32.567Z,2.80
2018-12-11T07:34:16.177Z,2.80
2018-12-11T07:36:58.555Z,2.80
2018-12-11T07:39:48.827Z,2.80
2018-12-11T07:42:25.166Z,2.80
2018-12-11T07:45:03.854Z,2.90
2018-12-11T07:47:41.856Z,2.90
2018-12-11T07:50:21.672Z,3.00
2018-12-11T07:52:58.664Z,3.00
2018-12-11T07:55:39.984Z,3.10
2018-12-11T07:58:22.142Z,3.20
2018-12-11T08:01:02.429Z,3.20
2018-12-11T08:03:40.830Z,3.30
2018-12-11T08:06:21.801Z,3.40
2018-12-11T08:08:58.989Z,3.40
2018-12-11T08:11:42.058Z,3.40
2018-12-11T08:14:28.795Z,3.40
2018-12-11T08:17:09.528Z,3.50
2018-12-11T08:19:52.667Z,3.50
2018-12-11T08:22:33.303Z,3.60
2018-12-11T08:25:13.465Z,3.60
2018-12-11T08:28:00.907Z,3.60
2018-12-11T08:30:49.893Z,3.70
2018-12-11T08:33:27.383Z,3.70
2018-12-11T08:36:02.363Z,3.70
2018-12-11T08:38:37.816Z,3.80
2018-12-11T08:41:15.379Z,3.80
2018-12-11T08:43:50.124Z,3.90
2018-12-11T08:46:39.848Z,3.90
2018-12-11T08:49:12.528Z,4.00
2018-12-11T08:51:46.254Z,4.00
2018-12-11T08:54:26.884Z,4.00
2018-12-11T08:56:58.093Z,4.10
2018-12-11T08:59:33.000Z,4.10
2018-12-11T09:02:04.560Z,4.20
2018-12-11T09:04:38.637Z,4.20
2018-12-11T09:07:12.238Z,4.20
2018-12-11T09:09:46.849Z,4.30
2018-12-11T09:12:18.821Z,4.30
2018-12-11T09:14:51.202Z,4.40
2018-12-11T09:17:22.786Z,4.40
2018-12-11T09:19:56.663Z,4.40
2018-12-11T09:22:28.291Z,4.50
2018-12-11T09:25:01.008Z,4.60
2018-12-11T09:27:32.254Z,4.60
2018-12-11T09:30:04.972Z,4.70
2018-12-11T09:32:36.612Z,4.80
2018-12-11T09:35:07.971Z,4.90
2018-12-11T09:37:42.073Z,5.00
2018-12-11T09:40:14.530Z,5.10
2018-12-11T09:42:46.702Z,5.10
2018-12-11T09:45:18.929Z,5.20
2018-12-11T09:47:50.109Z,5.20
2018-12-11T09:50:22.473Z,5.30
2018-12-11T09:52:54.283Z,5.30
2018-12-11T09:55:27.870Z,5.30
2018-12-11T09:58:01.322Z,5.30
2018-12-11T10:00:34.190Z,5.40
2018-12-11T10:03:05.338Z,5.40
2018-12-11T10:05:37.258Z,5.40
2018-12-11T10:08:08.872Z,5.40
2018-12-11T10:10:41.160Z,5.50
2018-12-11T10:13:14.933Z,5.50
2018-12-11T10:15:49.132Z,5.50
2018-12-11T10:18:20.683Z,5.40
2018-12-11T10:20:53.632Z,5.40
2018-12-11T10:23:31.846Z,5.40
2018-12-11T10:26:02.970Z,5.40
2018-12-11T10:28:37.185Z,5.40
2018-12-11T10:31:09.165Z,5.40
2018-12-11T10:33:40.734Z,5.40
2018-12-11T10:36:13.011Z,5.50
2018-12-11T10:38:44.720Z,5.50
2018-12-11T10:41:18.265Z,5.50
2018-12-11T10:43:49.673Z,5.60
2018-12-11T10:46:21.909Z,5.70
2018-12-11T10:48:53.112Z,5.80
2018-12-11T10:51:24.440Z,5.90
2018-12-11T10:53:55.986Z,6.00
2018-12-11T10:56:30.285Z,6.10
2018-12-11T10:59:03.578Z,6.20
2018-12-11T11:01:40.003Z,6.30
2018-12-11T11:04:11.602Z,6.40
2018-12-11T11:06:44.172Z,6.40
2018-12-11T11:09:18.115Z,6.40
2018-12-11T11:11:50.491Z,6.40
2018-12-11T11:14:22.281Z,6.40
2018-12-11T11:16:53.891Z,6.40
2018-12-11T11:19:24.970Z,6.50
2018-12-11T11:21:57.235Z,6.50
2018-12-11T11:24:28.165Z,6.60
2018-12-11T11:26:59.943Z,6.60
2018-12-11T11:29:31.062Z,6.60
2018-12-11T11:32:04.086Z,6.70
2018-12-11T11:34:40.407Z,6.80
2018-12-11T11:37:12.568Z,6.80
2018-12-11T11:39:43.818Z,6.80
2018-12-11T11:42:17.411Z,6.90
2018-12-11T11:44:49.088Z,7.00
2018-12-11T11:47:24.090Z,7.10
2018-12-11T11:49:55.521Z,7.10
2018-12-11T11:52:29.650Z,7.20
2018-12-11T11:55:00.818Z,7.20
2018-12-11T11:57:33.309Z,7.40
2018-12-11T12:00:06.369Z,7.50
2018-12-11T12:02:44.446Z,7.70
2018-12-11T12:05:15.880Z,7.70
2018-12-11T12:07:49.879Z,7.90
2018-12-11T12:10:21.124Z,7.80
2018-12-11T12:12:53.878Z,7.90
2018-12-11T12:15:28.422Z,7.90
2018-12-11T12:18:02.330Z,7.90
2018-12-11T12:20:34.075Z,7.80
2018-12-11T12:23:06.375Z,7.90
2018-12-11T12:25:38.018Z,7.90
2018-12-11T12:28:09.670Z,7.90
2018-12-11T12:30:42.148Z,7.80
2018-12-11T12:33:13.930Z,7.90
2018-12-11T12:35:47.528Z,7.90
2018-12-11T12:38:22.302Z,7.90
2018-12-11T12:40:54.386Z,8.00
2018-12-11T12:43:26.872Z,8.10
2018-12-11T12:46:00.815Z,8.20
2018-12-11T12:48:32.712Z,8.30
2018-12-11T12:51:04.653Z,8.30
2018-12-11T12:53:38.310Z,8.30
2018-12-11T12:56:11.854Z,8.30
2018-12-11T12:58:43.400Z,8.30
2018-12-11T13:01:17.028Z,8.30
2018-12-11T13:03:51.862Z,8.20
2018-12-11T13:06:23.050Z,8.40
2018-12-11T13:08:55.289Z,8.40
2018-12-11T13:11:26.975Z,8.40
2018-12-11T13:13:58.456Z,8.30
2018-12-11T13:16:32.718Z,8.10
2018-12-11T13:19:08.145Z,7.80
2018-12-11T13:21:39.911Z,7.70
2018-12-11T13:24:11.533Z,7.50
2018-12-11T13:26:47.507Z,7.40
2018-12-11T13:29:33.842Z,7.50
2018-12-11T13:32:05.087Z,7.60
2018-12-11T13:34:37.415Z,7.80
2018-12-11T13:37:11.321Z,7.90
2018-12-11T13:39:43.627Z,8.00
2018-12-11T13:42:14.885Z,8.10
2018-12-11T13:44:47.173Z,8.20
2018-12-11T13:47:24.595Z,8.20
2018-12-11T13:49:59.158Z,8.10
2018-12-11T13:52:32.523Z,8.00
2018-12-11T13:55:07.293Z,8.10
2018-12-11T13:57:39.145Z,8.10
2018-12-11T14:00:12.947Z,8.10
2018-12-11T14:02:46.949Z,8.30
2018-12-11T14:05:20.839Z,8.40
2018-12-11T14:07:54.589Z,8.40
2018-12-11T14:10:27.202Z,8.30
2018-12-11T14:12:58.197Z,8.10
2018-12-11T14:15:32.658Z,8.10
2018-12-11T14:18:03.723Z,8.00
2018-12-11T14:20:38.470Z,8.00
2018-12-11T14:23:10.373Z,8.00
2018-12-11T14:25:41.959Z,8.00
2018-12-11T14:28:15.825Z,7.90
2018-12-11T14:30:49.097Z,7.90
2018-12-11T14:33:22.948Z,7.80
2018-12-11T14:35:55.097Z,7.80
2018-12-11T14:38:26.797Z,7.70
2018-12-11T14:40:58.423Z,7.70
2018-12-11T14:43:29.869Z,7.60
2018-12-11T14:46:01.807Z,7.60
2018-12-11T14:48:35.678Z,7.50
2018-12-11T14:51:08.579Z,7.40
2018-12-11T14:53:40.322Z,7.30
2018-12-11T14:56:13.002Z,7.20
2018-12-11T14:58:44.037Z,7.20
2018-12-11T15:01:16.300Z,7.20
2018-12-11T15:03:47.229Z,7.10
2018-12-11T15:06:20.540Z,7.00
2018-12-11T15:08:54.405Z,7.00
2018-12-11T15:11:25.902Z,6.90
2018-12-11T15:13:59.760Z,6.80
2018-12-11T15:16:33.372Z,6.70
2018-12-11T15:19:04.680Z,6.60
2018-12-11T15:21:39.589Z,6.50
2018-12-11T15:24:12.652Z,6.40
2018-12-11T15:26:44.187Z,6.40
2018-12-11T15:29:13.866Z,6.30
2018-12-11T15:31:45.646Z,6.30
2018-12-11T15:34:17.062Z,6.20
2018-12-11T15:36:49.235Z,6.20
2018-12-11T15:39:24.846Z,6.10
2018-12-11T15:41:58.014Z,6.00
2018-12-11T15:44:29.314Z,5.90
2018-12-11T15:47:01.986Z,5.90
2018-12-11T15:49:33.340Z,5.80
2018-12-11T15:52:08.221Z,5.70
2018-12-11T15:54:39.336Z,5.60
2018-12-11T15:57:12.115Z,5.50
2018-12-11T15:59:44.243Z,5.40
2018-12-11T16:02:16.564Z,5.30
2018-12-11T16:04:50.406Z,5.20
2018-12-11T16:07:23.215Z,5.10
2018-12-11T16:09:54.849Z,5.00
2018-12-11T16:12:27.467Z,5.00
2018-12-11T16:14:59.422Z,4.90
2018-12-11T16:17:33.262Z,4.90
2018-12-11T16:20:05.005Z,4.80
2018-12-11T16:22:40.132Z,4.80
2018-12-11T16:25:18.135Z,4.80
2018-12-11T16:27:50.551Z,4.80
2018-12-11T16:30:22.778Z,4.80
2018-12-11T16:32:58.294Z,4.80
2018-12-11T16:35:39.738Z,4.70
2018-12-11T16:41:18.902Z,4.60
2018-12-11T16:43:58.663Z,4.60
2018-12-11T16:46:30.968Z,4.50
2018-12-11T16:49:05.738Z,4.50
2018-12-11T16:51:41.214Z,4.40
2018-12-11T16:54:13.204Z,4.30
2018-12-11T16:56:53.506Z,4.30
2018-12-11T16:59:24.700Z,4.20
2018-12-11T17:01:56.610Z,4.20
2018-12-11T17:04:30.425Z,4.10
2018-12-11T17:07:04.786Z,4.00
2018-12-11T17:09:46.232Z,3.90
2018-12-11T17:12:19.365Z,3.70
2018-12-11T17:14:50.686Z,3.60
2018-12-11T17:17:29.878Z,3.60
2018-12-11T17:20:04.149Z,3.50
2018-12-11T17:22:36.264Z,3.40
2018-12-11T17:25:07.539Z,3.30
2018-12-11T17:27:44.790Z,3.30
2018-12-11T17:30:16.512Z,3.30
2018-12-11T17:32:56.154Z,3.40
2018-12-11T17:35:34.160Z,3.40
2018-12-11T17:38:08.673Z,3.30
2018-12-11T17:40:42.822Z,3.10
2018-12-11T17:43:18.340Z,3.10
2018-12-11T17:45:56.314Z,2.90
2018-12-11T17:48:28.498Z,2.90
2018-12-11T17:50:59.773Z,2.90
2018-12-11T17:53:31.707Z,2.90
2018-12-11T17:56:06.192Z,3.00
2018-12-11T17:58:40.853Z,3.00
2018-12-11T18:01:15.201Z,3.10
2018-12-11T18:03:50.498Z,3.10
2018-12-11T18:06:27.812Z,3.20
2018-12-11T18:08:59.670Z,3.20
2018-12-11T18:11:33.852Z,3.20
2018-12-11T18:14:05.877Z,3.30
2018-12-11T18:16:38.650Z,3.30
2018-12-11T18:19:10.034Z,3.30
2018-12-11T18:21:43.764Z,3.30
2018-12-11T18:24:18.498Z,3.30
2018-12-11T18:26:50.422Z,3.40
2018-12-11T18:29:24.235Z,3.40
2018-12-11T18:34:48.939Z,3.50
2018-12-11T18:37:20.780Z,3.40
2018-12-11T18:39:52.826Z,3.40
2018-12-11T18:42:23.794Z,3.40
2018-12-11T18:44:55.931Z,3.30
2018-12-11T18:47:26.928Z,3.30
2018-12-11T18:49:58.910Z,3.30
2018-12-11T18:52:32.784Z,3.40
2018-12-11T18:55:05.718Z,3.40
2018-12-11T18:57:39.395Z,3.40
2018-12-11T19:05:09.758Z,3.40
2018-12-11T19:07:43.314Z,3.40
2018-12-11T19:10:15.348Z,3.40
2018-12-11T19:12:48.661Z,3.40
2018-12-11T19:15:22.422Z,3.40
2018-12-11T19:17:55.994Z,3.40
2018-12-11T19:20:27.965Z,3.40
2018-12-11T19:23:37.105Z,3.40
2018-12-11T19:26:10.043Z,3.50
2018-12-11T19:28:41.621Z,3.50
2018-12-11T19:31:13.984Z,3.50
2018-12-11T19:33:56.687Z,3.50
2018-12-11T19:36:28.247Z,3.50
2018-12-11T19:38:59.721Z,3.60
2018-12-11T19:41:31.739Z,3.60
2018-12-11T19:44:05.406Z,3.60
2018-12-11T19:46:37.377Z,3.60
2018-12-11T19:49:11.212Z,3.70
2018-12-11T19:51:46.022Z,3.70
2018-12-11T19:54:17.113Z,3.70
2018-12-11T19:56:51.061Z,3.70
2018-12-11T19:59:22.523Z,3.70
2018-12-11T20:01:56.440Z,3.70
2018-12-11T20:04:27.892Z,3.70
2018-12-11T20:06:59.834Z,3.70
2018-12-11T20:09:31.582Z,3.70
2018-12-11T20:12:03.283Z,3.60
2018-12-11T20:14:37.045Z,3.60
2018-12-11T20:17:13.636Z,3.60
2018-12-11T20:19:47.935Z,3.60
2018-12-11T20:22:20.255Z,3.60
2018-12-11T20:24:53.979Z,3.60
2018-12-11T20:27:25.994Z,3.70
2018-12-11T20:29:58.288Z,3.80
2018-12-11T20:32:32.908Z,3.80
2018-12-11T20:35:04.569Z,3.90
2018-12-11T20:37:45.444Z,3.90
2018-12-11T20:40:18.995Z,3.80
2018-12-11T20:42:51.111Z,3.70
2018-12-11T20:45:22.960Z,3.70
2018-12-11T20:47:55.233Z,3.70
2018-12-11T20:50:29.335Z,3.70
2018-12-11T20:53:04.936Z,3.70
2018-12-11T20:55:36.583Z,3.80
2018-12-11T20:58:11.338Z,3.80
2018-12-11T21:00:42.321Z,3.80
2018-12-11T21:03:14.882Z,3.80
2018-12-11T21:05:48.532Z,3.80
2018-12-11T21:08:24.228Z,3.80
2018-12-11T21:10:57.731Z,3.80
2018-12-11T21:13:32.277Z,3.70
2018-12-11T21:16:04.297Z,3.70
2018-12-11T21:18:39.013Z,3.70
2018-12-11T21:21:10.211Z,3.60
2018-12-11T21:23:42.015Z,3.60
2018-12-11T21:26:13.272Z,3.60
2018-12-11T21:28:45.887Z,3.50
2018-12-11T21:31:16.929Z,3.40
2018-12-11T21:33:48.833Z,3.40
2018-12-11T21:36:20.085Z,3.40
2018-12-11T21:38:55.313Z,3.40
2018-12-11T21:41:26.565Z,3.40
2018-12-11T21:43:59.571Z,3.40
2018-12-11T21:46:31.435Z,3.40
2018-12-11T21:49:06.412Z,3.50
2018-12-11T21:51:37.356Z,3.40
2018-12-11T21:54:09.221Z,3.40
2018-12-11T21:56:46.715Z,3.40
2018-12-11T21:59:21.345Z,3.40
2018-12-11T22:01:52.656Z,3.40
2018-12-11T22:04:33.723Z,3.40
2018-12-11T22:07:07.059Z,3.30
2018-12-11T22:09:39.102Z,3.30
2018-12-11T22:12:13.325Z,3.20
2018-12-11T22:14:45.568Z,3.30
2018-12-11T22:17:19.034Z,3.30
2018-12-11T22:19:53.208Z,3.40
2018-12-11T22:22:24.846Z,3.50
2018-12-11T22:24:58.324Z,3.60
2018-12-11T22:27:32.320Z,3.60
2018-12-11T22:30:06.865Z,3.60
2018-12-11T22:32:38.007Z,3.60
2018-12-11T22:35:11.766Z,3.60
2018-12-11T22:37:43.062Z,3.60
2018-12-11T22:40:16.001Z,3.60
2018-12-11T22:42:47.502Z,3.60
2018-12-11T22:45:20.216Z,3.50
2018-12-11T22:47:51.756Z,3.50
2018-12-11T22:50:23.517Z,3.40
2018-12-11T22:52:57.502Z,3.40
2018-12-11T22:55:31.977Z,3.40
2018-12-11T22:58:02.907Z,3.30
2018-12-11T23:00:35.191Z,3.30
2018-12-11T23:03:06.425Z,3.30
2018-12-11T23:05:39.366Z,3.30
2018-12-11T23:08:10.239Z,3.30
2018-12-11T23:10:45.734Z,3.30
2018-12-11T23:13:19.665Z,3.30
2018-12-11T23:15:53.387Z,3.30
2018-12-11T23:18:24.250Z,3.20
2018-12-11T23:20:58.392Z,3.10
2018-12-11T23:23:31.633Z,3.00
2018-12-11T23:26:04.870Z,3.00
2018-12-11T23:28:36.149Z,2.90
2018-12-11T23:31:08.047Z,2.80
2018-12-11T23:33:39.136Z,2.80
2018-12-11T23:36:10.647Z,2.80
2018-12-11T23:38:41.778Z,2.80
2018-12-11T23:41:14.459Z,2.80
2018-12-11T23:43:45.983Z,2.80
2018-12-11T23:46:17.584Z,2.80
2018-12-11T23:48:51.408Z,2.70
2018-12-11T23:51:22.693Z,2.70
2018-12-11T23:53:54.205Z,2.70
2018-12-11T23:56:28.337Z,2.70
2018-12-11T23:58:59.269Z,2.80
